Conover, Iowa
Current Conditions -  °F | °C
As of 6:35 AM on Monday 26 Jan 2015 (Local Time) from KDEH Reporting Station
Light Snow Light Snow  
Wind Chill: 13°   Ceiling: 4300
Heat Index: 23°   Visibility: 4mi
Dew Point: 19°   Wind: 9mph
Humidity: 86%   Direction: 160°SSE
Pressure: 29.81"   Gusts: 16mph
Location:  43.2097°N, 91.9613°W
Report Text: KDEH 261235Z AUTO 16008G14KT 4SM -SN SCT003 BKN043 OVC070 M05/M07 A2981 RMK AO2
Loading
Personal Weather Stations






























Interactive Weather Map New forecast layout! Learn more

10-Day Weather Forecast

Advertisements
Track Severe Weather on mobile